createdAt,value
2022-12-14T00:00:57.185Z,77.24
2022-12-14T00:03:24.092Z,77.48
2022-12-14T00:05:51.184Z,77.48
2022-12-14T00:08:18.023Z,77.68
2022-12-14T00:10:45.319Z,78.10
2022-12-14T00:13:14.134Z,78.15
2022-12-14T00:15:40.676Z,78.23
2022-12-14T00:18:09.022Z,78.29
2022-12-14T00:20:35.548Z,78.35
2022-12-14T00:23:02.080Z,78.06
2022-12-14T00:25:28.596Z,78.46
2022-12-14T00:27:55.126Z,78.92
2022-12-14T00:30:21.664Z,78.95
2022-12-14T00:32:48.204Z,79.17
2022-12-14T00:35:18.050Z,79.34
2022-12-14T00:37:45.615Z,78.89
2022-12-14T00:40:15.678Z,78.10
2022-12-14T00:42:42.878Z,78.50
2022-12-14T00:45:10.857Z,78.52
2022-12-14T00:47:40.876Z,78.62
2022-12-14T00:50:08.621Z,78.40
2022-12-14T00:52:38.097Z,78.35
2022-12-14T00:55:05.587Z,78.63
2022-12-14T00:57:32.244Z,78.27
2022-12-14T00:59:58.838Z,78.54
2022-12-14T01:02:25.502Z,78.15
2022-12-14T01:04:52.154Z,77.91
2022-12-14T01:07:18.758Z,76.80
2022-12-14T01:09:46.681Z,74.55
2022-12-14T01:12:13.236Z,74.97
2022-12-14T01:14:39.939Z,74.60
2022-12-14T01:17:06.485Z,75.02
2022-12-14T01:19:33.148Z,75.12
2022-12-14T01:21:59.666Z,74.76
2022-12-14T01:24:26.316Z,74.98
2022-12-14T01:26:54.180Z,74.47
2022-12-14T01:29:20.802Z,72.85
2022-12-14T01:31:48.706Z,70.70
2022-12-14T01:34:15.642Z,71.47
2022-12-14T01:36:42.173Z,70.73
2022-12-14T01:39:12.109Z,71.01
2022-12-14T01:41:40.635Z,71.10
2022-12-14T01:44:40.653Z,69.74
2022-12-14T01:47:16.742Z,68.12
2022-12-14T01:49:47.397Z,67.82
2022-12-14T01:52:19.535Z,68.85
2022-12-14T01:54:52.223Z,68.73
2022-12-14T01:57:25.975Z,68.52
2022-12-14T01:59:53.691Z,67.96
2022-12-14T02:02:23.493Z,68.01
2022-12-14T02:04:55.605Z,67.72
2022-12-14T02:07:23.942Z,66.20
2022-12-14T02:09:51.350Z,67.74
2022-12-14T02:12:22.045Z,68.29
2022-12-14T02:14:48.822Z,68.02
2022-12-14T02:17:15.639Z,68.13
2022-12-14T02:19:43.863Z,68.13
2022-12-14T02:22:36.672Z,67.92
2022-12-14T02:25:33.664Z,67.95
2022-12-14T02:28:23.192Z,67.40
2022-12-14T02:30:57.076Z,67.50
2022-12-14T02:33:37.103Z,68.82
2022-12-14T02:36:13.058Z,67.93
2022-12-14T02:38:50.752Z,68.21
2022-12-14T02:41:25.781Z,67.58
2022-12-14T02:44:03.371Z,68.07
2022-12-14T02:46:38.358Z,68.14
2022-12-14T02:49:10.941Z,69.28
2022-12-14T02:51:52.728Z,69.69
2022-12-14T02:54:27.205Z,69.47
2022-12-14T02:57:00.083Z,69.88
2022-12-14T02:59:28.006Z,70.09
2022-12-14T03:01:57.052Z,70.34
2022-12-14T03:04:24.262Z,70.15
2022-12-14T03:06:59.439Z,70.32
2022-12-14T03:09:30.083Z,70.44
2022-12-14T03:12:02.702Z,70.97
2022-12-14T03:14:34.225Z,71.61
2022-12-14T03:17:05.025Z,71.50
2022-12-14T03:19:37.474Z,71.45
2022-12-14T03:22:07.916Z,71.82
2022-12-14T03:24:39.147Z,70.94
2022-12-14T03:27:12.396Z,71.54
2022-12-14T03:29:45.169Z,71.87
2022-12-14T03:32:16.427Z,71.90
2022-12-14T03:34:49.600Z,72.53
2022-12-14T03:37:20.441Z,72.79
2022-12-14T03:39:47.698Z,73.03
2022-12-14T03:42:22.395Z,72.97
2022-12-14T03:44:57.835Z,73.36
2022-12-14T03:47:43.939Z,73.67
2022-12-14T03:50:15.559Z,73.95
2022-12-14T03:52:49.370Z,74.10
2022-12-14T03:55:26.181Z,74.17
2022-12-14T03:58:18.434Z,74.40
2022-12-14T04:00:52.158Z,74.60
2022-12-14T04:03:28.904Z,74.97
2022-12-14T04:06:00.431Z,74.45
2022-12-14T04:08:33.988Z,74.99
2022-12-14T04:11:05.234Z,74.73
2022-12-14T04:13:38.363Z,75.05
2022-12-14T04:16:10.291Z,75.13
2022-12-14T04:18:40.641Z,75.00
2022-12-14T04:21:13.534Z,74.87
2022-12-14T04:23:46.727Z,74.84
2022-12-14T04:26:19.587Z,75.47
2022-12-14T04:28:50.676Z,75.47
2022-12-14T04:31:21.330Z,76.15
2022-12-14T04:33:54.918Z,75.61
2022-12-14T04:36:28.132Z,76.08
2022-12-14T04:38:58.958Z,76.13
2022-12-14T04:41:31.089Z,76.60
2022-12-14T04:44:02.406Z,76.26
2022-12-14T04:46:37.514Z,75.68
2022-12-14T04:49:16.618Z,75.63
2022-12-14T04:51:49.161Z,76.03
2022-12-14T04:54:24.281Z,76.23
2022-12-14T04:56:56.034Z,76.45
2022-12-14T04:59:24.224Z,76.00
2022-12-14T05:01:59.821Z,75.98
2022-12-14T05:04:41.855Z,76.32
2022-12-14T05:07:18.339Z,76.94
2022-12-14T05:09:54.546Z,76.87
2022-12-14T05:12:26.879Z,77.22
2022-12-14T05:15:02.244Z,77.60
2022-12-14T05:17:29.579Z,77.16
2022-12-14T05:19:57.701Z,77.58
2022-12-14T05:22:24.701Z,77.63
2022-12-14T05:24:51.359Z,77.50
2022-12-14T05:27:18.063Z,77.17
2022-12-14T05:29:44.652Z,77.09
2022-12-14T05:32:12.349Z,77.67
2022-12-14T05:34:38.884Z,77.62
2022-12-14T05:37:09.557Z,78.13
2022-12-14T05:39:39.686Z,78.03
2022-12-14T05:42:06.459Z,78.50
2022-12-14T05:44:33.027Z,78.31
2022-12-14T05:46:59.567Z,78.32
2022-12-14T05:49:26.235Z,78.10
2022-12-14T05:51:53.049Z,78.04
2022-12-14T05:54:21.203Z,78.17
2022-12-14T05:56:47.867Z,78.07
2022-12-14T05:59:15.793Z,78.55
2022-12-14T06:01:43.215Z,77.87
2022-12-14T06:04:10.928Z,78.17
2022-12-14T06:06:37.662Z,78.54
2022-12-14T06:09:06.165Z,78.26
2022-12-14T06:11:37.604Z,77.83
2022-12-14T06:14:04.254Z,77.59
2022-12-14T06:16:30.971Z,77.71
2022-12-14T06:18:59.657Z,78.00
2022-12-14T06:21:28.616Z,78.24
2022-12-14T06:23:57.007Z,77.81
2022-12-14T06:26:24.357Z,77.89
2022-12-14T06:28:52.786Z,78.12
2022-12-14T06:31:22.086Z,78.23
2022-12-14T06:33:49.140Z,78.52
2022-12-14T06:36:20.159Z,78.49
2022-12-14T06:38:46.791Z,78.12
2022-12-14T06:41:13.559Z,78.02
2022-12-14T06:43:40.114Z,78.53
2022-12-14T06:46:14.845Z,78.35
2022-12-14T06:48:43.044Z,78.69
2022-12-14T06:51:10.756Z,78.50
2022-12-14T06:53:37.361Z,78.72
2022-12-14T06:56:08.780Z,78.13
2022-12-14T06:58:35.567Z,78.30
2022-12-14T07:01:02.712Z,78.05
2022-12-14T07:03:31.998Z,78.28
2022-12-14T07:06:00.674Z,78.20
2022-12-14T07:08:28.136Z,78.22
2022-12-14T07:11:00.516Z,78.13
2022-12-14T07:13:29.618Z,78.54
2022-12-14T07:15:58.060Z,78.80
2022-12-14T07:18:25.501Z,79.18
2022-12-14T07:20:57.691Z,78.58
2022-12-14T07:23:27.862Z,78.45
2022-12-14T07:26:01.296Z,78.99
2022-12-14T07:28:28.822Z,79.31
2022-12-14T07:30:55.467Z,78.80
2022-12-14T07:33:22.304Z,78.73
2022-12-14T07:35:48.834Z,79.19
2022-12-14T07:38:17.306Z,78.71
2022-12-14T07:40:43.893Z,78.20
2022-12-14T07:43:10.844Z,78.33
2022-12-14T07:45:38.277Z,78.24
2022-12-14T07:48:06.471Z,78.77
2022-12-14T07:50:33.015Z,79.42
2022-12-14T07:52:59.666Z,79.60
2022-12-14T07:55:27.677Z,78.91
2022-12-14T07:57:54.328Z,79.17
2022-12-14T08:00:22.006Z,79.04
2022-12-14T08:02:48.758Z,79.29
2022-12-14T08:05:15.539Z,79.44
2022-12-14T08:07:42.247Z,79.22
2022-12-14T08:10:08.898Z,78.78
2022-12-14T08:12:36.879Z,78.56
2022-12-14T08:15:04.358Z,78.27
2022-12-14T08:17:32.161Z,77.99
2022-12-14T08:19:58.718Z,79.00
2022-12-14T08:22:25.437Z,78.63
2022-12-14T08:24:52.151Z,79.38
2022-12-14T08:27:20.620Z,79.15
2022-12-14T08:29:48.502Z,78.57
2022-12-14T08:32:15.189Z,78.78
2022-12-14T08:34:42.087Z,78.23
2022-12-14T08:37:08.730Z,78.54
2022-12-14T08:39:35.502Z,78.86
2022-12-14T08:42:02.347Z,78.98
2022-12-14T08:44:28.869Z,78.91
2022-12-14T08:46:56.958Z,78.07
2022-12-14T08:49:26.454Z,76.83
2022-12-14T08:54:23.873Z,76.35
2022-12-14T08:56:50.481Z,76.02
2022-12-14T08:59:44.007Z,75.08
2022-12-14T09:02:05.087Z,75.96
2022-12-14T09:04:31.808Z,75.47
2022-12-14T09:06:58.472Z,75.69
2022-12-14T09:09:25.152Z,76.55
2022-12-14T09:11:51.864Z,76.19
2022-12-14T09:14:18.417Z,76.46
2022-12-14T09:16:45.452Z,75.89
2022-12-14T09:19:13.401Z,76.05
2022-12-14T09:21:40.412Z,74.13
2022-12-14T09:24:07.122Z,75.00
2022-12-14T09:26:33.846Z,75.00
2022-12-14T09:29:00.425Z,74.67
2022-12-14T09:31:27.815Z,76.08
2022-12-14T09:33:54.792Z,75.86
2022-12-14T09:36:24.674Z,76.59
2022-12-14T09:38:52.898Z,77.12
2022-12-14T09:41:31.478Z,76.71
2022-12-14T09:44:05.420Z,77.29
2022-12-14T09:46:44.004Z,77.53
2022-12-14T09:49:23.853Z,77.73
2022-12-14T09:51:53.986Z,77.89
2022-12-14T09:54:26.202Z,78.25
2022-12-14T09:56:57.097Z,78.73
2022-12-14T09:59:27.831Z,78.50
2022-12-14T10:04:55.346Z,79.24
2022-12-14T10:07:34.119Z,79.57
2022-12-14T10:10:13.744Z,79.89
2022-12-14T10:12:51.893Z,80.05
2022-12-14T10:15:28.231Z,80.40
2022-12-14T10:18:49.915Z,79.77
2022-12-14T10:21:13.688Z,80.24
2022-12-14T10:23:52.258Z,80.42
2022-12-14T10:26:22.754Z,80.26
2022-12-14T10:29:00.905Z,80.65
2022-12-14T10:31:35.917Z,80.74
2022-12-14T10:34:16.885Z,79.74
2022-12-14T10:36:53.827Z,80.57
2022-12-14T10:39:37.920Z,80.81
2022-12-14T10:42:13.101Z,80.09
2022-12-14T10:44:51.500Z,80.72
2022-12-14T10:47:31.194Z,81.44
2022-12-14T10:50:05.177Z,81.34
2022-12-14T10:52:37.962Z,81.17
2022-12-14T10:55:14.390Z,81.32
2022-12-14T10:57:41.134Z,81.73
2022-12-14T11:00:18.438Z,80.71
2022-12-14T11:02:52.535Z,80.55
2022-12-14T11:05:32.534Z,81.54
2022-12-14T11:08:03.111Z,81.30
2022-12-14T11:10:31.927Z,80.85
2022-12-14T11:13:04.483Z,80.66
2022-12-14T11:15:34.378Z,80.41
2022-12-14T11:18:04.568Z,80.72
2022-12-14T11:20:32.445Z,79.71
2022-12-14T11:23:07.225Z,80.56
2022-12-14T11:25:38.860Z,80.66
2022-12-14T11:28:22.730Z,80.91
2022-12-14T11:30:55.194Z,80.87
2022-12-14T11:33:22.247Z,80.81
2022-12-14T11:35:50.870Z,80.68
2022-12-14T11:38:17.823Z,81.22
2022-12-14T11:40:46.382Z,81.49
2022-12-14T11:43:25.065Z,81.64
2022-12-14T11:45:53.882Z,81.77
2022-12-14T11:48:22.757Z,81.29
2022-12-14T11:50:50.201Z,81.37
2022-12-14T11:53:18.656Z,81.93
2022-12-14T11:55:50.226Z,81.50
2022-12-14T11:58:20.356Z,81.80
2022-12-14T12:00:51.864Z,81.79
2022-12-14T12:03:23.534Z,81.14
2022-12-14T12:05:52.039Z,81.66
2022-12-14T12:08:23.087Z,81.67
2022-12-14T12:10:53.145Z,81.64
2022-12-14T12:13:26.596Z,81.75
2022-12-14T12:15:55.974Z,81.25
2022-12-14T12:18:28.645Z,81.39
2022-12-14T12:21:00.578Z,80.83
2022-12-14T12:23:33.516Z,81.24
2022-12-14T12:26:12.368Z,81.23
2022-12-14T12:28:45.060Z,81.24
2022-12-14T12:31:18.541Z,80.77
2022-12-14T12:33:50.383Z,81.41
2022-12-14T12:36:23.936Z,81.00
2022-12-14T12:39:02.037Z,81.24
2022-12-14T12:41:36.153Z,81.19
2022-12-14T12:44:19.000Z,81.45
2022-12-14T12:47:24.069Z,81.22
2022-12-14T12:49:46.351Z,80.50
2022-12-14T12:52:20.546Z,80.54
2022-12-14T12:54:56.178Z,81.11
2022-12-14T12:57:30.098Z,80.29
2022-12-14T12:59:58.319Z,80.50
2022-12-14T13:02:31.016Z,80.44
2022-12-14T13:05:22.067Z,80.60
2022-12-14T13:07:52.612Z,80.33
2022-12-14T13:10:22.982Z,80.45
2022-12-14T13:12:55.126Z,80.21
2022-12-14T13:15:26.343Z,80.30
2022-12-14T13:17:57.757Z,80.25
2022-12-14T13:20:28.126Z,80.53
2022-12-14T13:22:57.347Z,80.04
2022-12-14T13:25:41.754Z,80.10
2022-12-14T13:28:26.768Z,80.21
2022-12-14T13:31:04.982Z,79.93
2022-12-14T13:33:57.418Z,79.67
2022-12-14T13:36:41.336Z,79.76
2022-12-14T13:39:30.587Z,79.91
2022-12-14T13:42:06.541Z,80.01
2022-12-14T13:44:49.118Z,79.18
2022-12-14T13:47:19.952Z,79.79
2022-12-14T13:50:33.773Z,79.53
2022-12-14T13:52:44.175Z,79.23
2022-12-14T13:55:26.959Z,78.91
2022-12-14T13:58:00.175Z,79.30
2022-12-14T14:00:51.795Z,78.80
2022-12-14T14:03:48.205Z,79.28
2022-12-14T14:06:22.116Z,79.00
2022-12-14T14:08:50.776Z,78.55
2022-12-14T14:11:54.126Z,78.74
2022-12-14T14:14:35.068Z,78.67
2022-12-14T14:17:10.455Z,78.27
2022-12-14T14:19:40.044Z,78.35
2022-12-14T14:22:24.173Z,78.94
2022-12-14T14:24:55.340Z,79.05
2022-12-14T14:27:23.598Z,78.88
2022-12-14T14:29:51.874Z,78.07
2022-12-14T14:32:41.219Z,78.71
2022-12-14T14:35:21.062Z,78.77
2022-12-14T14:37:56.075Z,78.88
2022-12-14T14:40:44.268Z,78.94
2022-12-14T14:43:24.931Z,79.59
2022-12-14T14:45:54.679Z,79.79
2022-12-14T14:48:31.735Z,79.48
2022-12-14T14:51:06.294Z,79.15
2022-12-14T14:53:34.701Z,79.39
2022-12-14T14:56:32.268Z,79.20
2022-12-14T14:59:32.324Z,79.72
2022-12-14T15:02:02.769Z,80.03
2022-12-14T15:04:40.221Z,80.05
2022-12-14T15:07:15.149Z,79.84
2022-12-14T15:09:45.951Z,80.19
2022-12-14T15:12:24.907Z,80.05
2022-12-14T15:14:56.237Z,80.41
2022-12-14T15:17:24.728Z,80.60
2022-12-14T15:19:56.309Z,80.88
2022-12-14T15:22:25.825Z,80.82
2022-12-14T15:24:57.541Z,80.74
2022-12-14T15:27:27.460Z,80.69
2022-12-14T15:29:56.320Z,81.21
2022-12-14T15:32:24.037Z,80.59
2022-12-14T15:34:55.338Z,80.81
2022-12-14T15:37:28.863Z,81.26
2022-12-14T15:40:07.587Z,81.22
2022-12-14T15:42:34.241Z,81.77
2022-12-14T15:45:12.340Z,81.57
2022-12-14T15:47:39.009Z,81.94
2022-12-14T15:50:20.356Z,81.54
2022-12-14T15:52:48.160Z,81.55
2022-12-14T15:55:26.088Z,81.43
2022-12-14T15:57:53.070Z,81.98
2022-12-14T16:00:20.459Z,81.97
2022-12-14T16:02:47.417Z,81.50
2022-12-14T16:05:18.214Z,81.39
2022-12-14T16:07:48.267Z,81.92
2022-12-14T16:10:23.506Z,82.27
2022-12-14T16:12:53.988Z,82.39
2022-12-14T16:15:23.640Z,82.28
2022-12-14T16:17:56.001Z,81.80
2022-12-14T16:20:30.838Z,81.76
2022-12-14T16:23:00.695Z,81.88
2022-12-14T16:25:28.282Z,82.09
2022-12-14T16:27:55.021Z,82.66
2022-12-14T16:30:25.785Z,82.66
2022-12-14T16:33:03.569Z,82.85
2022-12-14T16:35:34.849Z,82.74
2022-12-14T16:38:06.500Z,82.86
2022-12-14T16:40:35.094Z,82.24
2022-12-14T16:43:02.712Z,82.21
2022-12-14T16:46:09.594Z,82.12
2022-12-14T16:48:40.032Z,82.17
2022-12-14T16:51:44.399Z,82.34
2022-12-14T16:54:22.659Z,82.59
2022-12-14T16:56:55.593Z,81.95
2022-12-14T16:59:25.891Z,81.77
2022-12-14T17:01:53.007Z,81.60
2022-12-14T17:04:20.658Z,81.80
2022-12-14T17:06:51.270Z,81.88
2022-12-14T17:09:20.404Z,82.14
2022-12-14T17:11:47.989Z,81.46
2022-12-14T17:14:15.325Z,81.22
2022-12-14T17:16:42.663Z,81.80
2022-12-14T17:19:15.941Z,82.17
2022-12-14T17:21:43.029Z,82.12
2022-12-14T17:24:14.791Z,82.12
2022-12-14T17:26:41.645Z,81.39
2022-12-14T17:29:17.295Z,81.96
2022-12-14T17:31:49.745Z,81.03
2022-12-14T17:34:17.209Z,80.98
2022-12-14T17:36:44.849Z,81.46
2022-12-14T17:39:17.225Z,81.46
2022-12-14T17:41:48.802Z,81.51
2022-12-14T17:44:20.970Z,82.39
2022-12-14T17:46:48.062Z,82.35
2022-12-14T17:49:18.803Z,82.40
2022-12-14T17:51:46.274Z,82.79
2022-12-14T17:54:19.173Z,82.60
2022-12-14T17:56:46.993Z,83.28
2022-12-14T17:59:13.843Z,83.57
2022-12-14T18:01:43.562Z,83.89
2022-12-14T18:04:11.185Z,84.20
2022-12-14T18:06:37.763Z,84.26
2022-12-14T18:09:05.764Z,84.62
2022-12-14T18:11:34.679Z,84.91
2022-12-14T18:14:01.475Z,84.98
2022-12-14T18:16:29.253Z,84.56
2022-12-14T18:18:56.060Z,85.00
2022-12-14T18:21:27.818Z,84.76
2022-12-14T18:23:54.805Z,85.21
2022-12-14T18:26:22.281Z,85.02
2022-12-14T18:28:54.265Z,85.40
2022-12-14T18:31:25.837Z,85.26
2022-12-14T18:33:53.205Z,84.57
2022-12-14T18:36:19.978Z,84.54
2022-12-14T18:38:49.483Z,84.25
2022-12-14T18:41:18.081Z,84.07
2022-12-14T18:43:45.040Z,84.51
2022-12-14T18:46:13.360Z,84.50
2022-12-14T18:48:43.591Z,84.11
2022-12-14T18:51:12.417Z,83.71
2022-12-14T18:53:40.457Z,83.50
2022-12-14T18:56:09.306Z,83.73
2022-12-14T18:58:36.717Z,83.60
2022-12-14T19:01:03.559Z,83.74
2022-12-14T19:03:32.725Z,83.65
2022-12-14T19:06:34.798Z,83.39
2022-12-14T19:08:51.949Z,84.17
2022-12-14T19:11:27.478Z,83.95
2022-12-14T19:13:57.065Z,83.98
2022-12-14T19:16:23.703Z,84.36
2022-12-14T19:18:52.204Z,83.91
2022-12-14T19:21:20.164Z,83.85
2022-12-14T19:23:46.857Z,83.43
2022-12-14T19:26:13.422Z,84.01
2022-12-14T19:28:40.416Z,84.01
2022-12-14T19:31:10.048Z,84.13
2022-12-14T19:33:37.279Z,84.38
2022-12-14T19:36:07.324Z,84.56
2022-12-14T19:38:38.019Z,84.67
2022-12-14T19:41:08.206Z,85.06
2022-12-14T19:43:35.541Z,84.58
2022-12-14T19:46:05.847Z,84.60
2022-12-14T19:48:32.550Z,84.29
2022-12-14T19:51:03.192Z,84.33
2022-12-14T19:53:33.343Z,83.96
2022-12-14T19:56:00.285Z,84.16
2022-12-14T19:58:28.235Z,84.64
2022-12-14T20:00:55.217Z,85.22
2022-12-14T20:03:23.601Z,85.64
2022-12-14T20:05:51.986Z,85.36
2022-12-14T20:08:19.421Z,85.56
2022-12-14T20:10:47.900Z,84.39
2022-12-14T20:13:14.773Z,84.70
2022-12-14T20:15:48.046Z,84.87
2022-12-14T20:18:14.778Z,84.72
2022-12-14T20:20:41.525Z,84.45
2022-12-14T20:23:09.078Z,84.35
2022-12-14T20:25:36.282Z,84.25
2022-12-14T20:28:04.720Z,84.89
2022-12-14T20:30:31.649Z,84.71
2022-12-14T20:32:58.312Z,84.95
2022-12-14T20:35:24.944Z,85.23
2022-12-14T20:37:52.678Z,85.23
2022-12-14T20:40:19.249Z,85.46
2022-12-14T20:42:45.869Z,85.78
2022-12-14T20:45:13.795Z,85.84
2022-12-14T20:47:40.369Z,85.40
2022-12-14T20:50:06.963Z,85.65
2022-12-14T20:52:33.642Z,85.68
2022-12-14T20:55:00.185Z,85.84
2022-12-14T20:57:26.792Z,86.50
2022-12-14T20:59:53.316Z,86.29
2022-12-14T21:02:21.906Z,86.60
2022-12-14T21:04:48.573Z,86.34
2022-12-14T21:07:15.262Z,86.79
2022-12-14T21:09:41.783Z,86.25
2022-12-14T21:12:09.787Z,85.96
2022-12-14T21:14:38.341Z,86.56
2022-12-14T21:17:05.815Z,86.82
2022-12-14T21:19:34.021Z,86.89
2022-12-14T21:22:00.655Z,87.25
2022-12-14T21:27:16.963Z,86.97
2022-12-14T21:29:43.974Z,86.98
2022-12-14T21:32:10.623Z,86.76
2022-12-14T21:34:39.070Z,86.55
2022-12-14T21:37:05.686Z,86.89
2022-12-14T21:39:32.240Z,86.54
2022-12-14T21:41:59.023Z,86.31
2022-12-14T21:44:26.442Z,86.69
2022-12-14T21:46:53.077Z,86.48
2022-12-14T21:49:19.714Z,86.38
2022-12-14T21:51:47.657Z,86.34
2022-12-14T21:54:16.405Z,86.04
2022-12-14T21:56:43.343Z,85.94
2022-12-14T21:59:10.005Z,86.07
2022-12-14T22:01:36.622Z,86.45
2022-12-14T22:04:03.612Z,86.89
2022-12-14T22:06:30.495Z,86.78
2022-12-14T22:08:59.042Z,86.63
2022-12-14T22:11:25.801Z,86.71
2022-12-14T22:13:52.276Z,87.18
2022-12-14T22:16:18.869Z,87.23
2022-12-14T22:18:45.914Z,86.70
2022-12-14T22:21:13.301Z,86.28
2022-12-14T22:23:43.642Z,86.26
2022-12-14T22:26:11.933Z,86.45
2022-12-14T22:28:38.557Z,86.53
2022-12-14T22:31:05.457Z,86.67
2022-12-14T22:33:32.461Z,86.44
2022-12-14T22:35:59.877Z,86.69
2022-12-14T22:38:26.877Z,86.58
2022-12-14T22:40:53.464Z,86.21
2022-12-14T22:43:27.496Z,86.05
2022-12-14T22:45:56.117Z,85.53
2022-12-14T22:48:22.627Z,85.16
2022-12-14T22:50:49.197Z,84.89
2022-12-14T22:53:16.044Z,85.37
2022-12-14T22:55:44.702Z,84.82
2022-12-14T22:58:17.747Z,85.08
2022-12-14T23:00:45.670Z,85.66
2022-12-14T23:03:12.409Z,85.86
2022-12-14T23:05:39.101Z,85.99
2022-12-14T23:08:05.900Z,86.45
2022-12-14T23:10:32.438Z,86.67
2022-12-14T23:13:00.368Z,85.94
2022-12-14T23:15:26.989Z,85.59
2022-12-14T23:18:00.807Z,85.55
2022-12-14T23:20:27.478Z,84.96
2022-12-14T23:22:54.086Z,84.79
2022-12-14T23:25:20.663Z,84.79
2022-12-14T23:27:47.174Z,85.43
2022-12-14T23:30:13.879Z,85.43
2022-12-14T23:32:40.443Z,85.61
2022-12-14T23:35:08.814Z,85.90
2022-12-14T23:37:35.329Z,86.46
2022-12-14T23:40:01.961Z,85.93
2022-12-14T23:42:28.756Z,86.42
2022-12-14T23:44:55.338Z,86.33
2022-12-14T23:47:21.912Z,86.53
2022-12-14T23:49:48.444Z,86.41
2022-12-14T23:52:16.302Z,86.70
2022-12-14T23:54:42.933Z,86.92
2022-12-14T23:57:09.447Z,87.15
2022-12-14T23:59:36.080Z,87.11
